sensor_id;sensor_type;location;lat;lon;timestamp;P1;durP1;ratioP1;P2;durP2;ratioP2
70049;SDS011;57391;51.306;22.680;2023-07-29T00:01:56;6.50;;;2.70;;
70049;SDS011;57391;51.306;22.680;2023-07-29T00:04:23;5.20;;;2.70;;
70049;SDS011;57391;51.306;22.680;2023-07-29T00:06:50;6.00;;;2.50;;
70049;SDS011;57391;51.306;22.680;2023-07-29T00:09:17;5.30;;;2.80;;
70049;SDS011;57391;51.306;22.680;2023-07-29T00:11:44;6.00;;;2.60;;
70049;SDS011;57391;51.306;22.680;2023-07-29T00:14:10;5.90;;;3.10;;
70049;SDS011;57391;51.306;22.680;2023-07-29T00:16:37;8.60;;;3.10;;
70049;SDS011;57391;51.306;22.680;2023-07-29T00:19:04;8.30;;;2.80;;
70049;SDS011;57391;51.306;22.680;2023-07-29T00:21:31;7.80;;;2.80;;
70049;SDS011;57391;51.306;22.680;2023-07-29T00:23:57;5.60;;;2.90;;
70049;SDS011;57391;51.306;22.680;2023-07-29T00:26:25;7.40;;;3.10;;
70049;SDS011;57391;51.306;22.680;2023-07-29T00:28:54;5.40;;;3.00;;
70049;SDS011;57391;51.306;22.680;2023-07-29T00:31:24;6.60;;;3.20;;
70049;SDS011;57391;51.306;22.680;2023-07-29T00:33:51;5.70;;;3.10;;
70049;SDS011;57391;51.306;22.680;2023-07-29T00:36:19;6.20;;;3.10;;
70049;SDS011;57391;51.306;22.680;2023-07-29T00:38:46;5.00;;;3.00;;
70049;SDS011;57391;51.306;22.680;2023-07-29T00:41:15;7.30;;;3.20;;
70049;SDS011;57391;51.306;22.680;2023-07-29T00:43:42;5.30;;;3.20;;
70049;SDS011;57391;51.306;22.680;2023-07-29T00:46:09;6.10;;;2.80;;
70049;SDS011;57391;51.306;22.680;2023-07-29T00:48:39;6.30;;;3.60;;
70049;SDS011;57391;51.306;22.680;2023-07-29T00:51:06;5.90;;;3.10;;
70049;SDS011;57391;51.306;22.680;2023-07-29T00:53:33;5.00;;;3.00;;
70049;SDS011;57391;51.306;22.680;2023-07-29T00:56:00;8.10;;;2.90;;
70049;SDS011;57391;51.306;22.680;2023-07-29T00:58:27;6.90;;;3.10;;
70049;SDS011;57391;51.306;22.680;2023-07-29T01:00:54;5.50;;;3.20;;
70049;SDS011;57391;51.306;22.680;2023-07-29T01:03:23;6.60;;;3.40;;
70049;SDS011;57391;51.306;22.680;2023-07-29T01:06:20;5.20;;;3.10;;
70049;SDS011;57391;51.306;22.680;2023-07-29T01:09:08;7.10;;;3.20;;
70049;SDS011;57391;51.306;22.680;2023-07-29T01:11:48;5.10;;;2.70;;
70049;SDS011;57391;51.306;22.680;2023-07-29T01:17:08;6.50;;;3.60;;
70049;SDS011;57391;51.306;22.680;2023-07-29T01:20:00;8.90;;;3.20;;
70049;SDS011;57391;51.306;22.680;2023-07-29T01:22:36;7.50;;;3.10;;
70049;SDS011;57391;51.306;22.680;2023-07-29T01:25:04;7.60;;;3.40;;
70049;SDS011;57391;51.306;22.680;2023-07-29T01:27:31;6.20;;;3.30;;
70049;SDS011;57391;51.306;22.680;2023-07-29T01:30:00;6.90;;;3.10;;
70049;SDS011;57391;51.306;22.680;2023-07-29T01:32:48;6.80;;;3.10;;
70049;SDS011;57391;51.306;22.680;2023-07-29T01:38:18;8.00;;;3.10;;
70049;SDS011;57391;51.306;22.680;2023-07-29T01:40:49;9.00;;;3.30;;
70049;SDS011;57391;51.306;22.680;2023-07-29T01:43:17;8.90;;;3.10;;
70049;SDS011;57391;51.306;22.680;2023-07-29T01:45:49;7.30;;;3.30;;
70049;SDS011;57391;51.306;22.680;2023-07-29T01:48:17;6.30;;;3.70;;
70049;SDS011;57391;51.306;22.680;2023-07-29T01:50:44;7.10;;;3.10;;
70049;SDS011;57391;51.306;22.680;2023-07-29T01:53:10;5.80;;;3.40;;
70049;SDS011;57391;51.306;22.680;2023-07-29T01:55:39;7.30;;;3.30;;
70049;SDS011;57391;51.306;22.680;2023-07-29T01:58:07;6.90;;;3.20;;
70049;SDS011;57391;51.306;22.680;2023-07-29T02:00:36;6.80;;;3.20;;
70049;SDS011;57391;51.306;22.680;2023-07-29T02:03:02;6.00;;;3.30;;
70049;SDS011;57391;51.306;22.680;2023-07-29T02:05:29;7.20;;;3.90;;
70049;SDS011;57391;51.306;22.680;2023-07-29T02:07:56;6.10;;;3.60;;
70049;SDS011;57391;51.306;22.680;2023-07-29T02:10:23;7.90;;;3.90;;
70049;SDS011;57391;51.306;22.680;2023-07-29T02:12:50;8.00;;;3.90;;
70049;SDS011;57391;51.306;22.680;2023-07-29T02:15:16;9.20;;;3.70;;
70049;SDS011;57391;51.306;22.680;2023-07-29T02:17:43;10.00;;;3.90;;
70049;SDS011;57391;51.306;22.680;2023-07-29T02:20:11;6.30;;;3.60;;
70049;SDS011;57391;51.306;22.680;2023-07-29T02:22:38;10.20;;;4.30;;
70049;SDS011;57391;51.306;22.680;2023-07-29T02:25:05;8.90;;;4.10;;
70049;SDS011;57391;51.306;22.680;2023-07-29T02:27:32;7.90;;;3.90;;
70049;SDS011;57391;51.306;22.680;2023-07-29T02:30:00;8.60;;;4.70;;
70049;SDS011;57391;51.306;22.680;2023-07-29T02:32:27;7.80;;;4.10;;
70049;SDS011;57391;51.306;22.680;2023-07-29T02:34:54;8.20;;;4.50;;
70049;SDS011;57391;51.306;22.680;2023-07-29T02:37:20;7.40;;;4.20;;
70049;SDS011;57391;51.306;22.680;2023-07-29T02:39:47;8.20;;;4.40;;
70049;SDS011;57391;51.306;22.680;2023-07-29T02:42:14;10.10;;;4.70;;
70049;SDS011;57391;51.306;22.680;2023-07-29T02:44:41;9.40;;;4.50;;
70049;SDS011;57391;51.306;22.680;2023-07-29T02:47:08;9.20;;;5.00;;
70049;SDS011;57391;51.306;22.680;2023-07-29T02:49:34;8.60;;;5.00;;
70049;SDS011;57391;51.306;22.680;2023-07-29T02:52:01;7.80;;;4.60;;
70049;SDS011;57391;51.306;22.680;2023-07-29T02:54:28;12.30;;;5.20;;
70049;SDS011;57391;51.306;22.680;2023-07-29T02:56:55;8.30;;;4.40;;
70049;SDS011;57391;51.306;22.680;2023-07-29T02:59:22;8.40;;;4.90;;
70049;SDS011;57391;51.306;22.680;2023-07-29T03:01:49;10.20;;;6.00;;
70049;SDS011;57391;51.306;22.680;2023-07-29T03:04:16;13.20;;;5.90;;
70049;SDS011;57391;51.306;22.680;2023-07-29T03:06:43;13.70;;;6.90;;
70049;SDS011;57391;51.306;22.680;2023-07-29T03:09:10;11.50;;;6.60;;
70049;SDS011;57391;51.306;22.680;2023-07-29T03:11:37;11.10;;;6.30;;
70049;SDS011;57391;51.306;22.680;2023-07-29T03:14:03;12.90;;;7.40;;
70049;SDS011;57391;51.306;22.680;2023-07-29T03:16:30;14.50;;;8.50;;
70049;SDS011;57391;51.306;22.680;2023-07-29T03:18:57;14.80;;;8.00;;
70049;SDS011;57391;51.306;22.680;2023-07-29T03:21:26;13.80;;;8.70;;
70049;SDS011;57391;51.306;22.680;2023-07-29T03:23:53;14.20;;;8.90;;
70049;SDS011;57391;51.306;22.680;2023-07-29T03:26:20;16.70;;;9.80;;
70049;SDS011;57391;51.306;22.680;2023-07-29T03:28:47;18.20;;;10.30;;
70049;SDS011;57391;51.306;22.680;2023-07-29T03:31:14;16.00;;;10.00;;
70049;SDS011;57391;51.306;22.680;2023-07-29T03:33:41;16.00;;;10.00;;
70049;SDS011;57391;51.306;22.680;2023-07-29T03:36:09;16.50;;;9.70;;
70049;SDS011;57391;51.306;22.680;2023-07-29T03:38:36;15.40;;;9.50;;
70049;SDS011;57391;51.306;22.680;2023-07-29T03:41:09;15.20;;;9.80;;
70049;SDS011;57391;51.306;22.680;2023-07-29T03:43:36;14.90;;;10.40;;
70049;SDS011;57391;51.306;22.680;2023-07-29T03:46:03;14.50;;;10.30;;
70049;SDS011;57391;51.306;22.680;2023-07-29T03:48:30;16.70;;;11.20;;
70049;SDS011;57391;51.306;22.680;2023-07-29T03:50:57;16.10;;;10.60;;
70049;SDS011;57391;51.306;22.680;2023-07-29T03:53:24;15.70;;;10.90;;
70049;SDS011;57391;51.306;22.680;2023-07-29T03:55:51;13.20;;;10.20;;
70049;SDS011;57391;51.306;22.680;2023-07-29T03:58:18;13.90;;;10.50;;
70049;SDS011;57391;51.306;22.680;2023-07-29T04:00:45;13.90;;;10.50;;
70049;SDS011;57391;51.306;22.680;2023-07-29T04:03:12;13.20;;;9.40;;
70049;SDS011;57391;51.306;22.680;2023-07-29T04:05:39;13.20;;;9.20;;
70049;SDS011;57391;51.306;22.680;2023-07-29T04:08:06;14.80;;;10.40;;
70049;SDS011;57391;51.306;22.680;2023-07-29T04:10:33;13.60;;;9.60;;
70049;SDS011;57391;51.306;22.680;2023-07-29T04:13:01;14.60;;;10.60;;
70049;SDS011;57391;51.306;22.680;2023-07-29T04:15:28;15.90;;;10.40;;
70049;SDS011;57391;51.306;22.680;2023-07-29T04:17:56;12.50;;;9.50;;
70049;SDS011;57391;51.306;22.680;2023-07-29T04:20:23;12.60;;;9.30;;
70049;SDS011;57391;51.306;22.680;2023-07-29T04:22:49;13.80;;;10.00;;
70049;SDS011;57391;51.306;22.680;2023-07-29T04:25:16;13.90;;;10.30;;
70049;SDS011;57391;51.306;22.680;2023-07-29T04:27:43;13.50;;;9.70;;
70049;SDS011;57391;51.306;22.680;2023-07-29T04:30:10;12.60;;;9.20;;
70049;SDS011;57391;51.306;22.680;2023-07-29T04:32:37;15.80;;;9.10;;
70049;SDS011;57391;51.306;22.680;2023-07-29T04:35:08;14.10;;;9.50;;
70049;SDS011;57391;51.306;22.680;2023-07-29T04:37:37;13.50;;;10.00;;
70049;SDS011;57391;51.306;22.680;2023-07-29T04:40:04;15.00;;;10.30;;
70049;SDS011;57391;51.306;22.680;2023-07-29T04:42:31;13.40;;;9.30;;
70049;SDS011;57391;51.306;22.680;2023-07-29T04:44:58;13.10;;;9.40;;
70049;SDS011;57391;51.306;22.680;2023-07-29T04:47:25;13.40;;;8.50;;
70049;SDS011;57391;51.306;22.680;2023-07-29T04:49:52;14.00;;;9.60;;
70049;SDS011;57391;51.306;22.680;2023-07-29T04:52:18;14.40;;;9.50;;
70049;SDS011;57391;51.306;22.680;2023-07-29T04:54:46;14.70;;;9.70;;
70049;SDS011;57391;51.306;22.680;2023-07-29T04:57:13;16.20;;;9.70;;
70049;SDS011;57391;51.306;22.680;2023-07-29T04:59:39;13.90;;;9.30;;
70049;SDS011;57391;51.306;22.680;2023-07-29T05:02:06;14.10;;;9.90;;
70049;SDS011;57391;51.306;22.680;2023-07-29T05:04:33;14.80;;;9.60;;
70049;SDS011;57391;51.306;22.680;2023-07-29T05:07:00;14.20;;;9.20;;
70049;SDS011;57391;51.306;22.680;2023-07-29T05:09:27;13.50;;;9.60;;
70049;SDS011;57391;51.306;22.680;2023-07-29T05:11:54;13.40;;;8.90;;
70049;SDS011;57391;51.306;22.680;2023-07-29T05:14:21;11.40;;;8.40;;
70049;SDS011;57391;51.306;22.680;2023-07-29T05:16:48;14.20;;;9.70;;
70049;SDS011;57391;51.306;22.680;2023-07-29T05:19:16;13.20;;;9.50;;
70049;SDS011;57391;51.306;22.680;2023-07-29T05:21:43;13.80;;;9.00;;
70049;SDS011;57391;51.306;22.680;2023-07-29T05:24:10;14.60;;;8.80;;
70049;SDS011;57391;51.306;22.680;2023-07-29T05:26:37;13.20;;;9.50;;
70049;SDS011;57391;51.306;22.680;2023-07-29T05:29:03;15.60;;;9.20;;
70049;SDS011;57391;51.306;22.680;2023-07-29T05:31:30;12.90;;;9.00;;
70049;SDS011;57391;51.306;22.680;2023-07-29T05:33:57;13.20;;;9.00;;
70049;SDS011;57391;51.306;22.680;2023-07-29T05:36:25;13.20;;;8.90;;
70049;SDS011;57391;51.306;22.680;2023-07-29T05:38:52;13.30;;;8.70;;
70049;SDS011;57391;51.306;22.680;2023-07-29T05:41:19;13.10;;;9.40;;
70049;SDS011;57391;51.306;22.680;2023-07-29T05:43:47;16.20;;;9.40;;
70049;SDS011;57391;51.306;22.680;2023-07-29T05:46:18;13.00;;;9.50;;
70049;SDS011;57391;51.306;22.680;2023-07-29T05:48:45;13.20;;;8.90;;
70049;SDS011;57391;51.306;22.680;2023-07-29T05:51:12;13.20;;;8.90;;
70049;SDS011;57391;51.306;22.680;2023-07-29T05:53:39;13.50;;;9.00;;
70049;SDS011;57391;51.306;22.680;2023-07-29T05:56:06;15.50;;;8.90;;
70049;SDS011;57391;51.306;22.680;2023-07-29T05:58:33;12.60;;;9.20;;
70049;SDS011;57391;51.306;22.680;2023-07-29T06:01:00;16.40;;;9.60;;
70049;SDS011;57391;51.306;22.680;2023-07-29T06:03:27;14.40;;;9.00;;
70049;SDS011;57391;51.306;22.680;2023-07-29T06:05:54;13.70;;;9.30;;
70049;SDS011;57391;51.306;22.680;2023-07-29T06:08:21;11.20;;;8.00;;
70049;SDS011;57391;51.306;22.680;2023-07-29T06:10:48;13.90;;;9.00;;
70049;SDS011;57391;51.306;22.680;2023-07-29T06:13:16;13.90;;;9.10;;
70049;SDS011;57391;51.306;22.680;2023-07-29T06:15:43;11.70;;;9.20;;
70049;SDS011;57391;51.306;22.680;2023-07-29T06:18:10;12.40;;;8.80;;
70049;SDS011;57391;51.306;22.680;2023-07-29T06:20:37;14.20;;;9.00;;
70049;SDS011;57391;51.306;22.680;2023-07-29T06:23:04;11.40;;;8.60;;
70049;SDS011;57391;51.306;22.680;2023-07-29T06:25:31;12.40;;;8.90;;
70049;SDS011;57391;51.306;22.680;2023-07-29T06:27:58;11.90;;;8.60;;
70049;SDS011;57391;51.306;22.680;2023-07-29T06:30:25;9.80;;;7.60;;
70049;SDS011;57391;51.306;22.680;2023-07-29T06:32:51;13.40;;;9.10;;
70049;SDS011;57391;51.306;22.680;2023-07-29T06:35:19;12.00;;;8.20;;
70049;SDS011;57391;51.306;22.680;2023-07-29T06:37:46;11.70;;;8.70;;
70049;SDS011;57391;51.306;22.680;2023-07-29T06:40:13;12.50;;;8.70;;
70049;SDS011;57391;51.306;22.680;2023-07-29T06:42:40;12.10;;;8.80;;
70049;SDS011;57391;51.306;22.680;2023-07-29T06:45:07;12.10;;;8.70;;
70049;SDS011;57391;51.306;22.680;2023-07-29T06:47:35;12.10;;;9.00;;
70049;SDS011;57391;51.306;22.680;2023-07-29T06:50:01;12.60;;;9.00;;
70049;SDS011;57391;51.306;22.680;2023-07-29T06:52:28;11.80;;;8.90;;
70049;SDS011;57391;51.306;22.680;2023-07-29T06:54:55;12.60;;;9.60;;
70049;SDS011;57391;51.306;22.680;2023-07-29T06:57:22;12.00;;;9.70;;
70049;SDS011;57391;51.306;22.680;2023-07-29T06:59:49;12.30;;;10.00;;
70049;SDS011;57391;51.306;22.680;2023-07-29T07:02:16;12.90;;;8.70;;
70049;SDS011;57391;51.306;22.680;2023-07-29T07:04:43;11.60;;;8.50;;
70049;SDS011;57391;51.306;22.680;2023-07-29T07:07:10;11.20;;;8.70;;
70049;SDS011;57391;51.306;22.680;2023-07-29T07:09:37;11.80;;;9.30;;
70049;SDS011;57391;51.306;22.680;2023-07-29T07:12:04;13.30;;;9.50;;
70049;SDS011;57391;51.306;22.680;2023-07-29T07:14:31;11.30;;;8.20;;
70049;SDS011;57391;51.306;22.680;2023-07-29T07:16:58;11.70;;;8.80;;
70049;SDS011;57391;51.306;22.680;2023-07-29T07:19:25;10.90;;;8.50;;
70049;SDS011;57391;51.306;22.680;2023-07-29T07:21:51;11.70;;;8.50;;
70049;SDS011;57391;51.306;22.680;2023-07-29T07:24:18;12.40;;;8.20;;
70049;SDS011;57391;51.306;22.680;2023-07-29T07:26:45;11.70;;;8.50;;
70049;SDS011;57391;51.306;22.680;2023-07-29T07:29:12;10.20;;;8.40;;
70049;SDS011;57391;51.306;22.680;2023-07-29T07:31:39;9.50;;;6.80;;
70049;SDS011;57391;51.306;22.680;2023-07-29T07:34:05;8.90;;;7.30;;
70049;SDS011;57391;51.306;22.680;2023-07-29T07:36:33;10.90;;;7.40;;
70049;SDS011;57391;51.306;22.680;2023-07-29T07:38:59;9.50;;;7.50;;
70049;SDS011;57391;51.306;22.680;2023-07-29T07:41:26;8.20;;;6.40;;
70049;SDS011;57391;51.306;22.680;2023-07-29T07:43:53;8.70;;;6.50;;
70049;SDS011;57391;51.306;22.680;2023-07-29T07:46:20;9.40;;;7.40;;
70049;SDS011;57391;51.306;22.680;2023-07-29T07:48:46;7.70;;;6.30;;
70049;SDS011;57391;51.306;22.680;2023-07-29T07:51:13;11.00;;;6.60;;
70049;SDS011;57391;51.306;22.680;2023-07-29T07:53:40;9.00;;;6.90;;
70049;SDS011;57391;51.306;22.680;2023-07-29T07:56:07;9.20;;;6.40;;
70049;SDS011;57391;51.306;22.680;2023-07-29T07:58:34;10.40;;;6.00;;
70049;SDS011;57391;51.306;22.680;2023-07-29T08:01:05;9.90;;;6.20;;
70049;SDS011;57391;51.306;22.680;2023-07-29T08:03:34;8.00;;;6.00;;
70049;SDS011;57391;51.306;22.680;2023-07-29T08:06:02;8.80;;;5.40;;
70049;SDS011;57391;51.306;22.680;2023-07-29T08:08:29;8.70;;;5.90;;
70049;SDS011;57391;51.306;22.680;2023-07-29T08:10:59;7.40;;;4.50;;
70049;SDS011;57391;51.306;22.680;2023-07-29T08:13:26;8.20;;;5.60;;
70049;SDS011;57391;51.306;22.680;2023-07-29T08:15:53;8.40;;;6.00;;
70049;SDS011;57391;51.306;22.680;2023-07-29T08:18:20;8.20;;;5.60;;
70049;SDS011;57391;51.306;22.680;2023-07-29T08:20:59;7.70;;;5.40;;
70049;SDS011;57391;51.306;22.680;2023-07-29T08:23:34;8.30;;;5.20;;
70049;SDS011;57391;51.306;22.680;2023-07-29T08:26:04;8.00;;;5.00;;
70049;SDS011;57391;51.306;22.680;2023-07-29T08:28:36;8.70;;;5.60;;
70049;SDS011;57391;51.306;22.680;2023-07-29T08:31:05;7.80;;;5.40;;
70049;SDS011;57391;51.306;22.680;2023-07-29T08:33:33;8.30;;;4.80;;
70049;SDS011;57391;51.306;22.680;2023-07-29T08:36:00;6.90;;;4.20;;
70049;SDS011;57391;51.306;22.680;2023-07-29T08:38:28;6.80;;;4.60;;
70049;SDS011;57391;51.306;22.680;2023-07-29T08:41:14;6.30;;;4.30;;
70049;SDS011;57391;51.306;22.680;2023-07-29T08:43:52;6.40;;;4.20;;
70049;SDS011;57391;51.306;22.680;2023-07-29T08:46:39;6.60;;;4.80;;
70049;SDS011;57391;51.306;22.680;2023-07-29T08:49:07;9.30;;;5.10;;
70049;SDS011;57391;51.306;22.680;2023-07-29T08:51:34;7.20;;;4.70;;
70049;SDS011;57391;51.306;22.680;2023-07-29T08:54:03;7.70;;;4.30;;
70049;SDS011;57391;51.306;22.680;2023-07-29T08:56:32;8.00;;;4.70;;
70049;SDS011;57391;51.306;22.680;2023-07-29T08:58:59;5.90;;;4.10;;
70049;SDS011;57391;51.306;22.680;2023-07-29T09:01:31;6.60;;;4.90;;
70049;SDS011;57391;51.306;22.680;2023-07-29T09:03:59;6.60;;;5.00;;
70049;SDS011;57391;51.306;22.680;2023-07-29T09:08:20;7.80;;;4.80;;
70049;SDS011;57391;51.306;22.680;2023-07-29T09:10:48;6.80;;;4.70;;
70049;SDS011;57391;51.306;22.680;2023-07-29T09:13:15;6.50;;;4.70;;
70049;SDS011;57391;51.306;22.680;2023-07-29T09:15:42;6.80;;;5.10;;
70049;SDS011;57391;51.306;22.680;2023-07-29T09:18:16;7.10;;;5.00;;
70049;SDS011;57391;51.306;22.680;2023-07-29T09:20:47;8.50;;;5.40;;
70049;SDS011;57391;51.306;22.680;2023-07-29T09:23:16;7.00;;;4.90;;
70049;SDS011;57391;51.306;22.680;2023-07-29T09:25:46;6.30;;;4.50;;
70049;SDS011;57391;51.306;22.680;2023-07-29T09:28:15;7.80;;;5.60;;
70049;SDS011;57391;51.306;22.680;2023-07-29T09:30:46;7.30;;;5.10;;
70049;SDS011;57391;51.306;22.680;2023-07-29T09:33:13;8.30;;;5.00;;
70049;SDS011;57391;51.306;22.680;2023-07-29T09:35:41;8.20;;;5.30;;
70049;SDS011;57391;51.306;22.680;2023-07-29T09:38:14;6.80;;;4.90;;
70049;SDS011;57391;51.306;22.680;2023-07-29T09:40:42;6.60;;;4.50;;
70049;SDS011;57391;51.306;22.680;2023-07-29T09:43:11;6.60;;;4.60;;
70049;SDS011;57391;51.306;22.680;2023-07-29T09:45:38;7.20;;;5.10;;
70049;SDS011;57391;51.306;22.680;2023-07-29T09:48:05;7.20;;;5.00;;
70049;SDS011;57391;51.306;22.680;2023-07-29T09:50:36;10.80;;;4.90;;
70049;SDS011;57391;51.306;22.680;2023-07-29T09:53:03;7.20;;;5.00;;
70049;SDS011;57391;51.306;22.680;2023-07-29T09:55:32;7.70;;;5.60;;
70049;SDS011;57391;51.306;22.680;2023-07-29T09:58:01;7.40;;;4.90;;
70049;SDS011;57391;51.306;22.680;2023-07-29T10:00:31;7.20;;;4.90;;
70049;SDS011;57391;51.306;22.680;2023-07-29T10:02:59;7.20;;;4.70;;
70049;SDS011;57391;51.306;22.680;2023-07-29T10:05:28;6.80;;;4.60;;
70049;SDS011;57391;51.306;22.680;2023-07-29T10:07:56;6.50;;;4.30;;
70049;SDS011;57391;51.306;22.680;2023-07-29T10:10:23;7.40;;;4.80;;
70049;SDS011;57391;51.306;22.680;2023-07-29T10:12:50;9.70;;;5.80;;
70049;SDS011;57391;51.306;22.680;2023-07-29T10:15:20;7.60;;;5.00;;
70049;SDS011;57391;51.306;22.680;2023-07-29T10:17:47;6.80;;;4.40;;
70049;SDS011;57391;51.306;22.680;2023-07-29T10:20:16;6.50;;;3.70;;
70049;SDS011;57391;51.306;22.680;2023-07-29T10:22:46;5.90;;;3.80;;
70049;SDS011;57391;51.306;22.680;2023-07-29T10:25:38;5.90;;;3.70;;
70049;SDS011;57391;51.306;22.680;2023-07-29T10:28:11;5.70;;;3.50;;
70049;SDS011;57391;51.306;22.680;2023-07-29T10:30:39;7.20;;;3.80;;
70049;SDS011;57391;51.306;22.680;2023-07-29T10:33:06;5.00;;;3.60;;
70049;SDS011;57391;51.306;22.680;2023-07-29T10:35:34;5.20;;;3.10;;
70049;SDS011;57391;51.306;22.680;2023-07-29T10:38:02;4.80;;;2.90;;
70049;SDS011;57391;51.306;22.680;2023-07-29T10:40:45;6.70;;;3.40;;
70049;SDS011;57391;51.306;22.680;2023-07-29T10:43:23;5.30;;;3.70;;
70049;SDS011;57391;51.306;22.680;2023-07-29T10:45:55;5.40;;;3.50;;
70049;SDS011;57391;51.306;22.680;2023-07-29T10:51:27;5.50;;;3.30;;
70049;SDS011;57391;51.306;22.680;2023-07-29T10:54:03;5.50;;;3.10;;
70049;SDS011;57391;51.306;22.680;2023-07-29T10:56:43;4.50;;;3.00;;
70049;SDS011;57391;51.306;22.680;2023-07-29T11:02:02;4.70;;;3.10;;
70049;SDS011;57391;51.306;22.680;2023-07-29T11:04:50;6.70;;;3.40;;
70049;SDS011;57391;51.306;22.680;2023-07-29T11:12:37;6.00;;;3.00;;
70049;SDS011;57391;51.306;22.680;2023-07-29T11:15:16;4.40;;;2.80;;
70049;SDS011;57391;51.306;22.680;2023-07-29T11:17:51;4.50;;;3.00;;
70049;SDS011;57391;51.306;22.680;2023-07-29T11:20:29;5.70;;;3.30;;
70049;SDS011;57391;51.306;22.680;2023-07-29T11:22:59;5.00;;;3.20;;
70049;SDS011;57391;51.306;22.680;2023-07-29T11:25:28;4.00;;;2.60;;
70049;SDS011;57391;51.306;22.680;2023-07-29T11:27:58;4.00;;;2.70;;
70049;SDS011;57391;51.306;22.680;2023-07-29T11:30:26;5.00;;;2.80;;
70049;SDS011;57391;51.306;22.680;2023-07-29T11:32:54;6.00;;;2.90;;
70049;SDS011;57391;51.306;22.680;2023-07-29T11:35:22;5.00;;;2.70;;
70049;SDS011;57391;51.306;22.680;2023-07-29T11:37:51;5.20;;;3.10;;
70049;SDS011;57391;51.306;22.680;2023-07-29T11:40:20;4.50;;;2.80;;
70049;SDS011;57391;51.306;22.680;2023-07-29T11:42:49;4.50;;;2.80;;
70049;SDS011;57391;51.306;22.680;2023-07-29T11:45:19;4.10;;;2.70;;
70049;SDS011;57391;51.306;22.680;2023-07-29T11:47:47;4.70;;;3.00;;
70049;SDS011;57391;51.306;22.680;2023-07-29T11:50:15;4.50;;;2.90;;
70049;SDS011;57391;51.306;22.680;2023-07-29T11:52:44;4.60;;;3.20;;
70049;SDS011;57391;51.306;22.680;2023-07-29T11:55:14;6.60;;;2.80;;
70049;SDS011;57391;51.306;22.680;2023-07-29T11:57:43;5.00;;;2.90;;
70049;SDS011;57391;51.306;22.680;2023-07-29T12:00:11;4.60;;;3.00;;
70049;SDS011;57391;51.306;22.680;2023-07-29T12:02:40;5.20;;;3.10;;
70049;SDS011;57391;51.306;22.680;2023-07-29T12:05:12;5.70;;;3.30;;
70049;SDS011;57391;51.306;22.680;2023-07-29T12:07:42;4.50;;;3.10;;
70049;SDS011;57391;51.306;22.680;2023-07-29T12:10:11;4.90;;;2.90;;
70049;SDS011;57391;51.306;22.680;2023-07-29T12:12:44;4.90;;;3.20;;
70049;SDS011;57391;51.306;22.680;2023-07-29T12:15:28;7.40;;;3.50;;
70049;SDS011;57391;51.306;22.680;2023-07-29T12:17:57;4.30;;;2.80;;
70049;SDS011;57391;51.306;22.680;2023-07-29T12:20:26;5.60;;;3.10;;
70049;SDS011;57391;51.306;22.680;2023-07-29T12:23:00;5.00;;;3.40;;
70049;SDS011;57391;51.306;22.680;2023-07-29T12:25:32;4.60;;;3.00;;
70049;SDS011;57391;51.306;22.680;2023-07-29T12:28:04;4.90;;;3.20;;
70049;SDS011;57391;51.306;22.680;2023-07-29T12:30:31;4.50;;;3.00;;
70049;SDS011;57391;51.306;22.680;2023-07-29T12:32:59;5.50;;;2.90;;
70049;SDS011;57391;51.306;22.680;2023-07-29T12:35:34;4.70;;;2.60;;
70049;SDS011;57391;51.306;22.680;2023-07-29T12:38:02;4.90;;;3.00;;
70049;SDS011;57391;51.306;22.680;2023-07-29T12:40:29;4.60;;;2.40;;
70049;SDS011;57391;51.306;22.680;2023-07-29T12:42:56;4.80;;;2.60;;
70049;SDS011;57391;51.306;22.680;2023-07-29T12:47:27;4.20;;;2.70;;
70049;SDS011;57391;51.306;22.680;2023-07-29T12:49:55;3.80;;;2.40;;
70049;SDS011;57391;51.306;22.680;2023-07-29T12:52:22;3.90;;;2.40;;
70049;SDS011;57391;51.306;22.680;2023-07-29T12:54:49;2.90;;;1.90;;
70049;SDS011;57391;51.306;22.680;2023-07-29T12:57:16;6.30;;;2.20;;
70049;SDS011;57391;51.306;22.680;2023-07-29T12:59:43;3.60;;;2.40;;
70049;SDS011;57391;51.306;22.680;2023-07-29T13:02:09;4.10;;;2.10;;
70049;SDS011;57391;51.306;22.680;2023-07-29T13:04:36;2.90;;;1.80;;
70049;SDS011;57391;51.306;22.680;2023-07-29T13:07:03;3.90;;;2.10;;
70049;SDS011;57391;51.306;22.680;2023-07-29T13:09:31;3.50;;;2.20;;
70049;SDS011;57391;51.306;22.680;2023-07-29T13:11:58;4.20;;;2.10;;
70049;SDS011;57391;51.306;22.680;2023-07-29T13:14:25;3.00;;;2.20;;
70049;SDS011;57391;51.306;22.680;2023-07-29T13:16:52;3.00;;;2.10;;
70049;SDS011;57391;51.306;22.680;2023-07-29T13:19:19;3.00;;;2.00;;
70049;SDS011;57391;51.306;22.680;2023-07-29T13:21:46;2.70;;;2.00;;
70049;SDS011;57391;51.306;22.680;2023-07-29T13:24:13;4.00;;;2.40;;
70049;SDS011;57391;51.306;22.680;2023-07-29T13:26:40;4.00;;;2.30;;
70049;SDS011;57391;51.306;22.680;2023-07-29T13:29:08;3.40;;;2.30;;
70049;SDS011;57391;51.306;22.680;2023-07-29T13:31:35;3.80;;;2.10;;
70049;SDS011;57391;51.306;22.680;2023-07-29T13:34:02;3.20;;;1.80;;
70049;SDS011;57391;51.306;22.680;2023-07-29T13:36:29;4.10;;;2.00;;
70049;SDS011;57391;51.306;22.680;2023-07-29T13:38:56;3.30;;;2.10;;
70049;SDS011;57391;51.306;22.680;2023-07-29T13:41:23;3.30;;;2.20;;
70049;SDS011;57391;51.306;22.680;2023-07-29T13:43:49;5.80;;;2.30;;
70049;SDS011;57391;51.306;22.680;2023-07-29T13:46:16;4.20;;;2.40;;
70049;SDS011;57391;51.306;22.680;2023-07-29T13:48:43;3.20;;;2.00;;
70049;SDS011;57391;51.306;22.680;2023-07-29T13:51:10;4.00;;;2.00;;
70049;SDS011;57391;51.306;22.680;2023-07-29T13:53:37;3.40;;;1.90;;
70049;SDS011;57391;51.306;22.680;2023-07-29T13:56:04;2.50;;;1.90;;
70049;SDS011;57391;51.306;22.680;2023-07-29T13:58:31;3.80;;;2.10;;
70049;SDS011;57391;51.306;22.680;2023-07-29T14:00:58;4.00;;;2.40;;
70049;SDS011;57391;51.306;22.680;2023-07-29T14:03:25;4.30;;;2.00;;
70049;SDS011;57391;51.306;22.680;2023-07-29T14:05:52;3.00;;;2.00;;
70049;SDS011;57391;51.306;22.680;2023-07-29T14:08:18;4.20;;;2.10;;
70049;SDS011;57391;51.306;22.680;2023-07-29T14:10:45;4.30;;;2.30;;
70049;SDS011;57391;51.306;22.680;2023-07-29T14:13:12;3.20;;;2.20;;
70049;SDS011;57391;51.306;22.680;2023-07-29T14:15:39;4.10;;;2.40;;
70049;SDS011;57391;51.306;22.680;2023-07-29T14:18:06;3.70;;;1.90;;
70049;SDS011;57391;51.306;22.680;2023-07-29T14:20:33;3.00;;;2.10;;
70049;SDS011;57391;51.306;22.680;2023-07-29T14:23:00;2.80;;;2.00;;
70049;SDS011;57391;51.306;22.680;2023-07-29T14:25:27;4.00;;;2.30;;
70049;SDS011;57391;51.306;22.680;2023-07-29T14:27:54;6.60;;;2.60;;
70049;SDS011;57391;51.306;22.680;2023-07-29T14:30:21;3.90;;;1.90;;
70049;SDS011;57391;51.306;22.680;2023-07-29T14:32:48;3.70;;;2.10;;
70049;SDS011;57391;51.306;22.680;2023-07-29T14:35:15;3.40;;;2.10;;
70049;SDS011;57391;51.306;22.680;2023-07-29T14:37:42;2.70;;;1.80;;
70049;SDS011;57391;51.306;22.680;2023-07-29T14:40:09;3.40;;;2.30;;
70049;SDS011;57391;51.306;22.680;2023-07-29T14:42:35;4.70;;;2.30;;
70049;SDS011;57391;51.306;22.680;2023-07-29T14:45:02;3.60;;;2.40;;
70049;SDS011;57391;51.306;22.680;2023-07-29T14:47:30;4.20;;;2.30;;
70049;SDS011;57391;51.306;22.680;2023-07-29T14:50:01;3.60;;;2.30;;
70049;SDS011;57391;51.306;22.680;2023-07-29T14:52:28;4.00;;;2.20;;
70049;SDS011;57391;51.306;22.680;2023-07-29T14:54:54;5.90;;;2.40;;
70049;SDS011;57391;51.306;22.680;2023-07-29T14:57:21;4.70;;;2.20;;